Time;durP1;ratioP1;P1;durP2;ratioP2;P2;SDS_P1;SDS_P2;PMS_P1;PMS_P2;Temp;Humidity;BMP_temperature;BMP_pressure;BME280_temperature;BME280_humidity;BME280_pressure;Samples;Min_cycle;Max_cycle;Signal;HPM_P1;HPM_P2
2022/02/11 00:07:14;;;;;;;23.40;15.00;;;;;;;6.17;80.37;98722.95;432076;1274;98848;-42
2022/02/11 00:17:21;;;;;;;25.40;16.50;;;;;;;6.06;80.78;98726.95;432082;1274;111302;-40
2022/02/11 00:37:53;;;;;;;14.00;8.20;;;;;;;5.70;82.34;98744.35;432103;1274;99289;-40
2022/02/11 01:08:48;;;;;;;7.80;3.10;;;;;;;4.92;83.55;98759.45;432020;1273;112506;-42
2022/02/11 01:19:03;;;;;;;4.60;3.80;;;;;;;4.84;83.47;98759.11;431928;1273;108882;-41
2022/02/11 05:07:43;;;;;;;21.50;12.50;;;;;;;4.35;84.40;98697.91;432399;1272;111400;-40
2022/02/11 05:17:51;;;;;;;41.70;21.20;;;;;;;4.16;84.64;98704.89;432035;1272;108824;-41
2022/02/11 05:27:58;;;;;;;35.70;22.50;;;;;;;4.23;84.73;98710.35;432227;1273;99813;-41
2022/02/11 05:38:06;;;;;;;34.80;23.00;;;;;;;4.19;84.60;98708.48;431691;1273;108916;-42
2022/02/11 05:48:14;;;;;;;33.20;21.20;;;;;;;4.23;84.71;98703.17;432070;1273;98070;-42
2022/02/11 05:58:21;;;;;;;39.20;21.50;;;;;;;4.30;84.97;98698.91;431528;1273;113179;-41
2022/02/11 06:08:28;;;;;;;56.40;28.70;;;;;;;4.31;84.82;98702.45;431478;1272;108491;-40
2022/02/11 06:18:36;;;;;;;67.10;31.80;;;;;;;4.25;85.12;98698.98;431697;1273;99158;-41
2022/02/11 06:28:43;;;;;;;37.90;24.10;;;;;;;4.14;84.90;98690.58;431503;1273;109130;-40
2022/02/11 06:38:50;;;;;;;32.00;22.60;;;;;;;4.20;85.09;98699.17;432287;1272;99363;-41
2022/02/11 06:48:57;;;;;;;39.10;25.80;;;;;;;4.19;84.90;98675.60;432259;1273;111593;-42
2022/02/11 06:59:04;;;;;;;37.50;21.80;;;;;;;4.15;85.07;98650.08;431788;1273;108800;-41
2022/02/11 07:09:11;;;;;;;55.00;28.60;;;;;;;4.32;85.40;98647.98;432406;1273;99348;-41
2022/02/11 07:19:17;;;;;;;75.40;35.70;;;;;;;4.52;85.41;98647.91;432039;1273;108892;-41
2022/02/11 07:29:25;;;;;;;54.80;30.00;;;;;;;4.60;85.47;98648.40;431563;1273;99300;-40
2022/02/11 07:39:32;;;;;;;57.70;31.00;;;;;;;4.45;85.25;98637.33;432221;1273;112496;-41
2022/02/11 07:49:39;;;;;;;40.30;26.40;;;;;;;4.54;85.38;98643.20;431968;1273;108963;-41
2022/02/11 14:26:49;;;;;;;13.50;9.10;;;;;;;1.32;92.89;98980.64;432400;1314;638004;-40
2022/02/11 14:36:56;;;;;;;14.30;6.50;;;;;;;1.45;92.65;99000.18;440142;1281;5385521;-41
2022/02/11 14:47:08;;;;;;;5.20;4.30;;;;;;;1.63;92.73;99008.41;444723;1280;108665;-40
2022/02/11 14:57:16;;;;;;;4.30;3.10;;;;;;;1.74;92.83;99041.05;444574;1278;108910;-40
2022/02/11 15:07:23;;;;;;;6.00;2.10;;;;;;;1.74;92.90;99065.63;444594;1280;92497;-40
2022/02/11 15:17:31;;;;;;;8.50;3.30;;;;;;;1.64;92.65;99073.83;444955;1279;92547;-41
2022/02/11 15:27:38;;;;;;;13.10;6.60;;;;;;;1.73;92.26;99088.18;446798;1272;108211;-40
2022/02/11 15:37:45;;;;;;;3.20;2.40;;;;;;;1.75;92.16;99104.24;446857;1273;108787;-41
2022/02/11 15:47:52;;;;;;;3.60;2.40;;;;;;;1.82;91.97;99125.86;446841;1273;108747;-40
2022/02/11 16:08:07;;;;;;;;;;;;;;;1.89;91.68;99161.91;446850;1273;93362;-40
2022/02/11 16:28:22;;;;;;;12.30;8.30;;;;;;;1.76;91.70;99186.73;446803;1273;108708;-40
2022/02/11 16:38:29;;;;;;;17.10;10.80;;;;;;;1.85;91.42;99195.14;446846;1271;109003;-40
2022/02/11 16:48:36;;;;;;;38.20;17.30;;;;;;;1.83;91.53;99215.67;446903;1271;93416;-41
2022/02/11 16:58:42;;;;;;;36.70;22.20;;;;;;;1.79;91.59;99225.45;446874;1273;93606;-41
2022/02/11 17:08:52;;;;;;;12.60;11.30;;;;;;;1.66;91.01;99245.61;446844;1271;109251;-41
2022/02/11 17:18:59;;;;;;;11.50;7.50;;;;;;;1.48;90.58;99253.33;446738;1272;108854;-41
2022/02/11 17:29:09;;;;;;;7.60;6.30;;;;;;;1.42;90.78;99274.70;446716;1274;108909;-40
2022/02/11 17:39:16;;;;;;;6.20;5.10;;;;;;;1.43;90.73;99277.02;446706;1274;93620;-41
2022/02/11 17:49:22;;;;;;;13.70;8.90;;;;;;;1.27;90.67;99282.08;446744;1274;93815;-42
2022/02/11 17:59:29;;;;;;;16.60;11.40;;;;;;;1.07;90.62;99290.36;446781;1274;109727;-41
2022/02/11 18:09:36;;;;;;;61.60;24.50;;;;;;;1.02;90.88;99306.67;446716;1274;108837;-41
2022/02/11 18:19:43;;;;;;;117.80;47.10;;;;;;;0.95;90.37;99322.93;446659;1273;108116;-42
2022/02/11 18:29:50;;;;;;;41.70;18.20;;;;;;;0.95;90.05;99332.55;446670;1274;93386;-41
2022/02/11 18:39:58;;;;;;;25.90;13.20;;;;;;;0.88;90.20;99336.11;446630;1274;93164;-41
2022/02/11 18:50:06;;;;;;;25.50;15.10;;;;;;;0.98;90.15;99357.05;446721;1272;109712;-42
2022/02/11 19:00:27;;;;;;;56.90;20.20;;;;;;;0.85;90.03;99367.86;446676;1274;108936;-41
2022/02/11 19:10:36;;;;;;;31.10;18.60;;;;;;;0.77;90.41;99378.88;446701;1274;108837;-42
2022/02/11 19:20:43;;;;;;;21.90;12.80;;;;;;;0.78;90.47;99390.94;446733;1274;93356;-41
2022/02/11 19:30:52;;;;;;;13.60;8.70;;;;;;;0.70;89.95;99406.85;446604;1274;93348;-42
2022/02/11 19:41:00;;;;;;;17.80;8.00;;;;;;;0.67;89.97;99419.21;446695;1274;109678;-41
2022/02/11 19:51:09;;;;;;;7.20;5.50;;;;;;;0.69;89.92;99426.88;446674;1272;108859;-40
2022/02/11 20:01:36;;;;;;;12.40;8.10;;;;;;;0.74;90.01;99434.58;446615;1274;108908;-41
2022/02/11 20:21:49;;;;;;;20.30;11.60;;;;;;;0.49;90.00;99463.78;446795;1273;93110;-41
2022/02/11 20:31:55;;;;;;;13.70;9.10;;;;;;;0.39;90.06;99470.03;446780;1272;108703;-41
2022/02/11 20:42:01;;;;;;;13.50;7.10;;;;;;;0.42;90.00;99473.35;446825;1271;108672;-41
2022/02/11 20:52:08;;;;;;;12.70;8.00;;;;;;;0.52;89.95;99487.87;446745;1271;108830;-40
2022/02/11 21:02:16;;;;;;;11.00;8.00;;;;;;;0.55;90.06;99502.27;446861;1273;92998;-40
2022/02/11 21:12:24;;;;;;;23.90;12.80;;;;;;;0.59;90.00;99519.23;446886;1272;93016;-40
2022/02/11 21:22:31;;;;;;;25.80;13.40;;;;;;;0.52;90.18;99528.27;446816;1273;107971;-41
2022/02/11 21:32:38;;;;;;;21.70;11.30;;;;;;;0.56;90.13;99544.35;446866;1271;108929;-40
2022/02/11 21:42:45;;;;;;;17.20;10.50;;;;;;;0.68;90.14;99550.36;446812;1271;108921;-40
2022/02/11 21:52:53;;;;;;;18.60;9.70;;;;;;;0.70;90.08;99557.23;446810;1273;93357;-40
2022/02/11 22:03:01;;;;;;;15.30;9.00;;;;;;;0.79;90.34;99569.76;446815;1273;93375;-41
2022/02/11 22:13:08;;;;;;;13.60;8.00;;;;;;;0.89;90.37;99572.25;446801;1273;110017;-41
2022/02/11 22:23:15;;;;;;;16.00;10.00;;;;;;;0.99;90.38;99591.02;446932;1273;108924;-41
2022/02/11 22:33:23;;;;;;;21.30;12.20;;;;;;;0.98;90.40;99603.25;446828;1273;108870;-41
2022/02/11 22:43:30;;;;;;;27.90;12.30;;;;;;;0.96;90.43;99611.79;446878;1273;93382;-41
2022/02/11 22:53:37;;;;;;;21.00;13.30;;;;;;;1.01;90.19;99619.47;446875;1273;93348;-41
2022/02/11 23:03:45;;;;;;;16.10;10.60;;;;;;;1.11;90.22;99624.92;446767;1273;109726;-41
2022/02/11 23:13:53;;;;;;;14.20;10.30;;;;;;;1.14;90.25;99641.10;447104;1272;108827;-41
2022/02/11 23:24:00;;;;;;;17.30;9.50;;;;;;;1.14;90.39;99655.39;446997;1272;108668;-41
2022/02/11 23:34:07;;;;;;;23.50;13.50;;;;;;;1.12;90.69;99657.65;447089;1273;93013;-41
2022/02/11 23:44:14;;;;;;;15.20;10.70;;;;;;;1.02;90.97;99661.92;447109;1272;93317;-41
2022/02/11 23:54:24;;;;;;;18.50;9.10;;;;;;;1.04;91.02;99666.16;447042;1272;109661;-40
